Terminal Aerodrome Forecast
Issued by NWS

Home | Current Version | Previous Version | Text Only | Print | Product List | Glossary On
Versions: 1 2 3 4 5 6 7 8 9 10 11 12 13 14 15 16 17 18 19 20 21 22 23 24 25 26 27 28 29 30 31 32 33
000
FTAK31 PAFA 210520
TAFATA
TAF
PATA 210520Z 2106/2206 VRB03KT 6SM -RA BR SCT025 BKN035 OVC050
     FM211000 27004KT P6SM FEW025 BKN050 OVC100
     FM211600 VRB03KT 5SM BR SCT100=

USA.gov is the U.S. government's official web portal to all federal, state and local government web resources and services.